CDT,Max TemperatureF,Mean TemperatureF,Min TemperatureF,Max Dew PointF,MeanDew PointF,Min DewpointF,Max Humidity, Mean Humidity, Min Humidity, Max Sea Level PressureIn, Mean Sea Level PressureIn, Min Sea Level PressureIn, Max VisibilityMiles, Mean VisibilityMiles, Min VisibilityMiles, Max Wind SpeedMPH, Mean Wind SpeedMPH, Max Gust SpeedMPH,PrecipitationIn, CloudCover, Events, WindDirDegrees
2013-10-1,77,61,45,57,50,39,93,65,36,29.97,29.87,29.78,10,10,10,23,10,30,0.00,0,,248
2013-10-2,84,68,52,64,53,40,84,59,33,30.03,29.94,29.85,10,10,9,18,7,25,0.00,4,,152
2013-10-3,80,72,63,66,63,59,100,76,52,29.84,29.80,29.75,10,8,2,17,6,23,0.18,5,Rain-Thunderstorm,170
2013-10-4,76,70,63,70,64,61,100,90,79,29.91,29.81,29.71,10,7,1,24,9,32,2.13,5,Rain-Thunderstorm,127
2013-10-5,68,58,47,63,41,35,78,60,42,29.92,29.84,29.78,10,10,10,24,11,30,0.00,4,,240
2013-10-6,50,46,41,47,42,35,96,81,65,29.91,29.79,29.74,10,8,2,20,8,24,0.16,8,Rain,283
2013-10-7,75,58,40,46,41,37,93,60,27,30.03,29.99,29.91,10,10,10,18,7,23,0.00,0,,274
2013-10-8,76,59,42,47,44,41,96,64,31,30.06,30.01,29.96,10,10,10,25,10,36,0.00,0,,175
2013-10-9,74,60,46,50,47,44,93,64,35,30.10,30.06,30.02,10,10,10,17,7,22,0.00,0,,158
2013-10-10,77,60,42,52,48,42,93,65,36,30.07,29.99,29.88,10,10,8,20,6,24,0.00,0,,147
2013-10-11,72,62,52,61,56,49,96,79,61,29.89,29.80,29.71,10,10,8,24,12,33,0.00,3,,165
2013-10-12,66,52,38,47,37,29,82,55,27,30.25,30.05,29.84,10,10,10,22,9,30,0.00,1,,284
2013-10-13,66,49,32,37,33,29,92,59,26,30.45,30.38,30.27,10,10,9,8,1,12,0.00,0,,350
2013-10-14,64,49,34,46,37,32,85,61,36,30.36,30.14,29.81,10,10,6,26,12,33,0.49,2,Rain,136
2013-10-15,59,53,47,56,46,40,93,80,66,29.93,29.84,29.75,10,9,2,24,16,31,0.06,8,Rain-Thunderstorm,233
2013-10-16,50,43,35,43,41,35,100,83,66,30.01,29.97,29.93,10,10,7,17,8,24,0.00,7,,291
2013-10-17,62,50,37,43,37,31,92,62,32,29.96,29.89,29.82,10,10,9,22,8,26,0.00,2,,269
2013-10-18,51,43,35,36,32,27,85,62,39,30.06,30.00,29.96,10,10,10,18,9,26,0.00,1,,288
2013-10-19,56,44,32,34,32,30,89,65,41,29.94,29.86,29.78,10,10,10,21,9,28,T,5,Rain,266
2013-10-20,64,51,38,41,36,30,82,62,42,29.95,29.80,29.71,10,10,10,22,10,30,0.00,6,,283
2013-10-21,50,41,32,32,27,22,85,61,36,30.08,30.01,29.96,10,10,7,23,8,30,0.00,5,,306
2013-10-22,41,39,36,39,32,26,100,82,64,30.09,29.97,29.88,10,7,2,18,8,22,0.25,8,Rain-Snow,13
2013-10-23,42,35,27,36,31,25,92,72,51,30.16,30.10,30.06,10,10,5,13,8,16,0.02,6,Rain,288
2013-10-24,47,38,28,29,26,21,92,71,49,30.38,30.29,30.17,10,10,10,20,9,25,0.00,4,,308
2013-10-25,56,40,23,31,27,21,100,69,38,30.42,30.25,30.01,10,10,10,28,11,36,0.00,1,,229
2013-10-26,52,39,26,32,28,24,92,64,35,30.17,30.09,29.94,10,10,10,28,13,33,0.00,0,,304
2013-10-27,62,42,22,33,28,21,96,64,32,30.11,29.99,29.86,10,10,10,21,7,26,0.00,0,,196
2013-10-28,53,43,32,37,33,29,89,72,54,30.31,30.20,30.00,10,10,10,20,12,26,0.00,0,,53
2013-10-29,56,48,39,46,40,32,83,73,63,30.28,30.12,30.02,10,10,8,16,9,22,T,7,,110
2013-10-30,65,58,50,59,53,48,100,87,73,30.01,29.86,29.65,10,4,0,22,9,30,0.50,7,Fog-Rain-Thunderstorm,134
2013-10-31,53,47,41,52,40,37,96,86,76,29.65,29.56,29.46,10,8,4,18,10,23,0.02,6,,296